sensor_id;sensor_type;location;lat;lon;timestamp;P1;durP1;ratioP1;P2;durP2;ratioP2
71648;SDS011;59492;45.638;11.714;2023-02-26T00:01:39;41.10;;;25.90;;
71648;SDS011;59492;45.638;11.714;2023-02-26T00:04:05;36.50;;;25.40;;
71648;SDS011;59492;45.638;11.714;2023-02-26T00:06:33;39.10;;;25.90;;
71648;SDS011;59492;45.638;11.714;2023-02-26T00:09:03;37.70;;;26.30;;
71648;SDS011;59492;45.638;11.714;2023-02-26T00:11:30;37.90;;;25.20;;
71648;SDS011;59492;45.638;11.714;2023-02-26T00:13:56;35.40;;;25.10;;
71648;SDS011;59492;45.638;11.714;2023-02-26T00:16:29;37.90;;;25.10;;
71648;SDS011;59492;45.638;11.714;2023-02-26T00:19:05;39.50;;;25.50;;
71648;SDS011;59492;45.638;11.714;2023-02-26T00:21:33;37.60;;;25.30;;
71648;SDS011;59492;45.638;11.714;2023-02-26T00:24:01;40.80;;;27.00;;
71648;SDS011;59492;45.638;11.714;2023-02-26T00:26:28;37.10;;;24.90;;
71648;SDS011;59492;45.638;11.714;2023-02-26T00:28:56;37.00;;;24.10;;
71648;SDS011;59492;45.638;11.714;2023-02-26T00:31:27;36.00;;;25.30;;
71648;SDS011;59492;45.638;11.714;2023-02-26T00:33:58;36.70;;;25.70;;
71648;SDS011;59492;45.638;11.714;2023-02-26T00:36:43;37.30;;;24.70;;
71648;SDS011;59492;45.638;11.714;2023-02-26T00:41:57;33.90;;;23.50;;
71648;SDS011;59492;45.638;11.714;2023-02-26T00:44:23;36.50;;;24.70;;
71648;SDS011;59492;45.638;11.714;2023-02-26T00:46:52;36.90;;;25.20;;
71648;SDS011;59492;45.638;11.714;2023-02-26T00:52:10;32.50;;;24.60;;
71648;SDS011;59492;45.638;11.714;2023-02-26T00:54:42;38.80;;;24.40;;
71648;SDS011;59492;45.638;11.714;2023-02-26T00:57:07;32.90;;;23.80;;
71648;SDS011;59492;45.638;11.714;2023-02-26T00:59:33;32.50;;;24.10;;
71648;SDS011;59492;45.638;11.714;2023-02-26T01:01:59;32.90;;;23.60;;
71648;SDS011;59492;45.638;11.714;2023-02-26T01:04:33;37.50;;;24.30;;
71648;SDS011;59492;45.638;11.714;2023-02-26T01:06:59;33.50;;;22.90;;
71648;SDS011;59492;45.638;11.714;2023-02-26T01:12:01;32.00;;;22.60;;
71648;SDS011;59492;45.638;11.714;2023-02-26T01:14:30;30.40;;;22.20;;
71648;SDS011;59492;45.638;11.714;2023-02-26T01:20:00;31.40;;;22.60;;
71648;SDS011;59492;45.638;11.714;2023-02-26T01:22:34;29.40;;;21.70;;
71648;SDS011;59492;45.638;11.714;2023-02-26T01:25:15;29.90;;;21.50;;
71648;SDS011;59492;45.638;11.714;2023-02-26T01:27:57;31.90;;;21.00;;
71648;SDS011;59492;45.638;11.714;2023-02-26T01:30:23;28.60;;;20.90;;
71648;SDS011;59492;45.638;11.714;2023-02-26T01:35:52;27.60;;;20.30;;
71648;SDS011;59492;45.638;11.714;2023-02-26T01:38:29;35.40;;;20.90;;
71648;SDS011;59492;45.638;11.714;2023-02-26T01:41:38;28.50;;;19.00;;
71648;SDS011;59492;45.638;11.714;2023-02-26T01:49:36;27.80;;;18.50;;
71648;SDS011;59492;45.638;11.714;2023-02-26T01:52:04;25.20;;;17.80;;
71648;SDS011;59492;45.638;11.714;2023-02-26T01:54:35;28.70;;;18.70;;
71648;SDS011;59492;45.638;11.714;2023-02-26T01:57:06;24.50;;;17.50;;
71648;SDS011;59492;45.638;11.714;2023-02-26T01:59:37;24.00;;;17.50;;
71648;SDS011;59492;45.638;11.714;2023-02-26T02:02:07;26.70;;;17.50;;
71648;SDS011;59492;45.638;11.714;2023-02-26T02:04:35;26.40;;;16.50;;
71648;SDS011;59492;45.638;11.714;2023-02-26T02:07:07;19.40;;;14.60;;
71648;SDS011;59492;45.638;11.714;2023-02-26T02:09:33;20.00;;;14.90;;
71648;SDS011;59492;45.638;11.714;2023-02-26T02:14:45;19.90;;;15.30;;
71648;SDS011;59492;45.638;11.714;2023-02-26T02:23:14;23.40;;;15.80;;
71648;SDS011;59492;45.638;11.714;2023-02-26T02:25:54;19.90;;;14.80;;
71648;SDS011;59492;45.638;11.714;2023-02-26T02:32:03;19.70;;;14.30;;
71648;SDS011;59492;45.638;11.714;2023-02-26T02:34:18;19.40;;;13.50;;
71648;SDS011;59492;45.638;11.714;2023-02-26T02:42:51;21.30;;;13.70;;
71648;SDS011;59492;45.638;11.714;2023-02-26T02:45:23;18.90;;;12.60;;
71648;SDS011;59492;45.638;11.714;2023-02-26T02:47:56;16.40;;;12.40;;
71648;SDS011;59492;45.638;11.714;2023-02-26T02:50:30;16.90;;;12.30;;
71648;SDS011;59492;45.638;11.714;2023-02-26T02:53:07;20.90;;;13.00;;
71648;SDS011;59492;45.638;11.714;2023-02-26T02:55:53;16.80;;;12.50;;
71648;SDS011;59492;45.638;11.714;2023-02-26T02:58:27;16.10;;;11.80;;
71648;SDS011;59492;45.638;11.714;2023-02-26T03:00:56;17.30;;;12.30;;
71648;SDS011;59492;45.638;11.714;2023-02-26T03:03:30;15.40;;;11.50;;
71648;SDS011;59492;45.638;11.714;2023-02-26T03:06:01;16.00;;;11.80;;
71648;SDS011;59492;45.638;11.714;2023-02-26T03:08:33;15.90;;;11.70;;
71648;SDS011;59492;45.638;11.714;2023-02-26T03:11:05;15.60;;;12.20;;
71648;SDS011;59492;45.638;11.714;2023-02-26T03:13:35;16.90;;;11.50;;
71648;SDS011;59492;45.638;11.714;2023-02-26T03:21:20;16.20;;;11.20;;
71648;SDS011;59492;45.638;11.714;2023-02-26T03:26:41;15.20;;;10.90;;
71648;SDS011;59492;45.638;11.714;2023-02-26T03:29:26;13.20;;;10.70;;
71648;SDS011;59492;45.638;11.714;2023-02-26T03:31:59;15.40;;;10.90;;
71648;SDS011;59492;45.638;11.714;2023-02-26T03:34:38;12.40;;;9.80;;
71648;SDS011;59492;45.638;11.714;2023-02-26T03:40:30;15.40;;;9.90;;
71648;SDS011;59492;45.638;11.714;2023-02-26T03:43:06;12.70;;;9.80;;
71648;SDS011;59492;45.638;11.714;2023-02-26T03:45:41;12.60;;;10.20;;
71648;SDS011;59492;45.638;11.714;2023-02-26T03:48:32;12.60;;;9.60;;
71648;SDS011;59492;45.638;11.714;2023-02-26T03:51:13;11.20;;;9.70;;
71648;SDS011;59492;45.638;11.714;2023-02-26T03:56:44;11.00;;;9.00;;
71648;SDS011;59492;45.638;11.714;2023-02-26T03:59:17;12.40;;;8.50;;
71648;SDS011;59492;45.638;11.714;2023-02-26T04:01:57;11.80;;;9.00;;
71648;SDS011;59492;45.638;11.714;2023-02-26T04:04:41;12.40;;;8.80;;
71648;SDS011;59492;45.638;11.714;2023-02-26T04:07:12;11.10;;;8.70;;
71648;SDS011;59492;45.638;11.714;2023-02-26T04:09:42;11.90;;;9.40;;
71648;SDS011;59492;45.638;11.714;2023-02-26T04:12:30;13.40;;;8.90;;
71648;SDS011;59492;45.638;11.714;2023-02-26T04:15:00;15.50;;;9.20;;
71648;SDS011;59492;45.638;11.714;2023-02-26T04:17:29;10.60;;;8.50;;
71648;SDS011;59492;45.638;11.714;2023-02-26T04:19:54;14.30;;;9.60;;
71648;SDS011;59492;45.638;11.714;2023-02-26T04:22:20;12.00;;;8.60;;
71648;SDS011;59492;45.638;11.714;2023-02-26T04:24:48;12.50;;;8.70;;
71648;SDS011;59492;45.638;11.714;2023-02-26T04:27:16;11.10;;;8.20;;
71648;SDS011;59492;45.638;11.714;2023-02-26T04:29:42;10.10;;;8.30;;
71648;SDS011;59492;45.638;11.714;2023-02-26T04:32:08;11.60;;;8.50;;
71648;SDS011;59492;45.638;11.714;2023-02-26T04:34:34;12.90;;;8.10;;
71648;SDS011;59492;45.638;11.714;2023-02-26T04:37:04;11.30;;;8.00;;
71648;SDS011;59492;45.638;11.714;2023-02-26T04:39:30;10.20;;;8.40;;
71648;SDS011;59492;45.638;11.714;2023-02-26T04:41:58;9.80;;;7.60;;
71648;SDS011;59492;45.638;11.714;2023-02-26T04:44:27;8.60;;;7.10;;
71648;SDS011;59492;45.638;11.714;2023-02-26T04:46:52;10.70;;;7.40;;
71648;SDS011;59492;45.638;11.714;2023-02-26T04:49:18;11.60;;;8.00;;
71648;SDS011;59492;45.638;11.714;2023-02-26T04:51:44;9.10;;;7.50;;
71648;SDS011;59492;45.638;11.714;2023-02-26T04:54:13;9.90;;;7.70;;
71648;SDS011;59492;45.638;11.714;2023-02-26T04:56:42;8.90;;;7.80;;
71648;SDS011;59492;45.638;11.714;2023-02-26T04:59:10;8.70;;;7.00;;
71648;SDS011;59492;45.638;11.714;2023-02-26T05:01:42;9.50;;;7.00;;
71648;SDS011;59492;45.638;11.714;2023-02-26T05:04:10;8.70;;;7.40;;
71648;SDS011;59492;45.638;11.714;2023-02-26T05:06:38;10.60;;;7.20;;
71648;SDS011;59492;45.638;11.714;2023-02-26T05:09:11;8.00;;;6.90;;
71648;SDS011;59492;45.638;11.714;2023-02-26T05:11:37;8.40;;;7.10;;
71648;SDS011;59492;45.638;11.714;2023-02-26T05:14:03;9.50;;;7.40;;
71648;SDS011;59492;45.638;11.714;2023-02-26T05:16:28;11.20;;;7.00;;
71648;SDS011;59492;45.638;11.714;2023-02-26T05:19:00;9.20;;;7.30;;
71648;SDS011;59492;45.638;11.714;2023-02-26T05:21:27;10.20;;;7.60;;
71648;SDS011;59492;45.638;11.714;2023-02-26T05:24:02;9.40;;;7.40;;
71648;SDS011;59492;45.638;11.714;2023-02-26T05:26:28;8.90;;;7.00;;
71648;SDS011;59492;45.638;11.714;2023-02-26T05:28:55;8.40;;;6.70;;
71648;SDS011;59492;45.638;11.714;2023-02-26T05:31:20;9.20;;;6.30;;
71648;SDS011;59492;45.638;11.714;2023-02-26T05:33:49;9.50;;;6.20;;
71648;SDS011;59492;45.638;11.714;2023-02-26T05:36:19;8.60;;;6.60;;
71648;SDS011;59492;45.638;11.714;2023-02-26T05:38:45;8.80;;;6.80;;
71648;SDS011;59492;45.638;11.714;2023-02-26T05:41:18;7.50;;;6.30;;
71648;SDS011;59492;45.638;11.714;2023-02-26T05:43:47;9.30;;;6.60;;
71648;SDS011;59492;45.638;11.714;2023-02-26T05:46:12;8.60;;;6.50;;
71648;SDS011;59492;45.638;11.714;2023-02-26T05:48:44;8.20;;;6.60;;
71648;SDS011;59492;45.638;11.714;2023-02-26T05:51:09;7.30;;;6.00;;
71648;SDS011;59492;45.638;11.714;2023-02-26T05:53:35;8.10;;;6.10;;
71648;SDS011;59492;45.638;11.714;2023-02-26T05:56:01;6.90;;;6.10;;
71648;SDS011;59492;45.638;11.714;2023-02-26T05:58:27;8.00;;;5.70;;
71648;SDS011;59492;45.638;11.714;2023-02-26T06:00:53;7.20;;;5.90;;
71648;SDS011;59492;45.638;11.714;2023-02-26T06:03:18;7.40;;;5.90;;
71648;SDS011;59492;45.638;11.714;2023-02-26T06:05:44;7.80;;;6.00;;
71648;SDS011;59492;45.638;11.714;2023-02-26T06:08:10;6.00;;;5.40;;
71648;SDS011;59492;45.638;11.714;2023-02-26T06:10:40;7.60;;;6.00;;
71648;SDS011;59492;45.638;11.714;2023-02-26T06:13:15;6.80;;;5.40;;
71648;SDS011;59492;45.638;11.714;2023-02-26T06:15:41;8.30;;;5.70;;
71648;SDS011;59492;45.638;11.714;2023-02-26T06:18:10;6.50;;;5.40;;
71648;SDS011;59492;45.638;11.714;2023-02-26T06:20:38;7.50;;;5.60;;
71648;SDS011;59492;45.638;11.714;2023-02-26T06:23:06;7.30;;;5.50;;
71648;SDS011;59492;45.638;11.714;2023-02-26T06:25:35;6.10;;;5.30;;
71648;SDS011;59492;45.638;11.714;2023-02-26T06:28:11;7.10;;;5.70;;
71648;SDS011;59492;45.638;11.714;2023-02-26T06:30:36;7.20;;;5.40;;
71648;SDS011;59492;45.638;11.714;2023-02-26T06:33:02;7.10;;;5.60;;
71648;SDS011;59492;45.638;11.714;2023-02-26T06:35:28;5.80;;;4.80;;
71648;SDS011;59492;45.638;11.714;2023-02-26T06:37:54;5.40;;;4.90;;
71648;SDS011;59492;45.638;11.714;2023-02-26T06:40:21;6.20;;;5.10;;
71648;SDS011;59492;45.638;11.714;2023-02-26T06:42:52;6.60;;;5.00;;
71648;SDS011;59492;45.638;11.714;2023-02-26T06:45:28;5.50;;;4.90;;
71648;SDS011;59492;45.638;11.714;2023-02-26T06:47:57;6.30;;;4.80;;
71648;SDS011;59492;45.638;11.714;2023-02-26T06:50:25;4.90;;;4.40;;
71648;SDS011;59492;45.638;11.714;2023-02-26T06:52:51;8.10;;;4.40;;
71648;SDS011;59492;45.638;11.714;2023-02-26T06:55:20;5.30;;;4.30;;
71648;SDS011;59492;45.638;11.714;2023-02-26T06:57:46;5.90;;;4.70;;
71648;SDS011;59492;45.638;11.714;2023-02-26T07:00:12;6.80;;;4.60;;
71648;SDS011;59492;45.638;11.714;2023-02-26T07:02:41;9.20;;;5.70;;
71648;SDS011;59492;45.638;11.714;2023-02-26T07:05:11;8.20;;;5.10;;
71648;SDS011;59492;45.638;11.714;2023-02-26T07:07:40;7.00;;;4.80;;
71648;SDS011;59492;45.638;11.714;2023-02-26T07:10:12;10.50;;;5.00;;
71648;SDS011;59492;45.638;11.714;2023-02-26T07:12:41;8.50;;;4.50;;
71648;SDS011;59492;45.638;11.714;2023-02-26T07:15:09;10.30;;;4.90;;
71648;SDS011;59492;45.638;11.714;2023-02-26T07:17:42;7.50;;;4.40;;
71648;SDS011;59492;45.638;11.714;2023-02-26T07:20:08;5.60;;;4.60;;
71648;SDS011;59492;45.638;11.714;2023-02-26T07:22:36;5.20;;;4.20;;
71648;SDS011;59492;45.638;11.714;2023-02-26T07:25:05;7.00;;;4.80;;
71648;SDS011;59492;45.638;11.714;2023-02-26T07:27:35;6.90;;;4.60;;
71648;SDS011;59492;45.638;11.714;2023-02-26T07:30:03;6.40;;;4.70;;
71648;SDS011;59492;45.638;11.714;2023-02-26T07:32:30;5.70;;;4.70;;
71648;SDS011;59492;45.638;11.714;2023-02-26T07:34:58;6.50;;;4.40;;
71648;SDS011;59492;45.638;11.714;2023-02-26T07:37:24;6.90;;;4.60;;
71648;SDS011;59492;45.638;11.714;2023-02-26T07:40:00;5.70;;;4.40;;
71648;SDS011;59492;45.638;11.714;2023-02-26T07:44:52;5.30;;;4.10;;
71648;SDS011;59492;45.638;11.714;2023-02-26T07:47:17;5.60;;;4.20;;
71648;SDS011;59492;45.638;11.714;2023-02-26T07:49:43;6.60;;;4.50;;
71648;SDS011;59492;45.638;11.714;2023-02-26T07:52:09;4.90;;;4.10;;
71648;SDS011;59492;45.638;11.714;2023-02-26T07:54:36;8.10;;;4.30;;
71648;SDS011;59492;45.638;11.714;2023-02-26T07:57:13;4.10;;;3.70;;
71648;SDS011;59492;45.638;11.714;2023-02-26T07:59:54;5.00;;;3.60;;
71648;SDS011;59492;45.638;11.714;2023-02-26T08:02:20;6.70;;;3.90;;
71648;SDS011;59492;45.638;11.714;2023-02-26T08:04:50;4.80;;;3.70;;
71648;SDS011;59492;45.638;11.714;2023-02-26T08:07:33;5.50;;;3.90;;
71648;SDS011;59492;45.638;11.714;2023-02-26T08:10:02;8.40;;;4.30;;
71648;SDS011;59492;45.638;11.714;2023-02-26T08:12:28;4.90;;;3.80;;
71648;SDS011;59492;45.638;11.714;2023-02-26T08:14:54;4.30;;;3.50;;
71648;SDS011;59492;45.638;11.714;2023-02-26T08:17:20;4.30;;;3.40;;
71648;SDS011;59492;45.638;11.714;2023-02-26T08:19:57;4.40;;;3.60;;
71648;SDS011;59492;45.638;11.714;2023-02-26T08:22:24;5.70;;;4.00;;
71648;SDS011;59492;45.638;11.714;2023-02-26T08:24:52;4.70;;;3.80;;
71648;SDS011;59492;45.638;11.714;2023-02-26T08:27:22;6.40;;;3.80;;
71648;SDS011;59492;45.638;11.714;2023-02-26T08:29:54;4.40;;;3.50;;
71648;SDS011;59492;45.638;11.714;2023-02-26T08:32:20;5.60;;;4.20;;
71648;SDS011;59492;45.638;11.714;2023-02-26T08:34:47;5.10;;;3.40;;
71648;SDS011;59492;45.638;11.714;2023-02-26T08:37:17;4.30;;;3.50;;
71648;SDS011;59492;45.638;11.714;2023-02-26T08:42:33;4.60;;;3.30;;
71648;SDS011;59492;45.638;11.714;2023-02-26T08:45:03;5.60;;;3.40;;
71648;SDS011;59492;45.638;11.714;2023-02-26T08:47:35;3.90;;;3.20;;
71648;SDS011;59492;45.638;11.714;2023-02-26T08:50:02;5.00;;;3.30;;
71648;SDS011;59492;45.638;11.714;2023-02-26T08:52:31;3.80;;;3.20;;
71648;SDS011;59492;45.638;11.714;2023-02-26T08:54:57;3.70;;;3.30;;
71648;SDS011;59492;45.638;11.714;2023-02-26T08:57:22;4.20;;;3.50;;
71648;SDS011;59492;45.638;11.714;2023-02-26T08:59:53;4.90;;;3.50;;
71648;SDS011;59492;45.638;11.714;2023-02-26T09:02:19;8.30;;;4.10;;
71648;SDS011;59492;45.638;11.714;2023-02-26T09:04:44;5.40;;;3.00;;
71648;SDS011;59492;45.638;11.714;2023-02-26T09:07:14;5.10;;;3.50;;
71648;SDS011;59492;45.638;11.714;2023-02-26T09:09:40;10.40;;;3.20;;
71648;SDS011;59492;45.638;11.714;2023-02-26T09:12:05;7.00;;;3.20;;
71648;SDS011;59492;45.638;11.714;2023-02-26T09:14:31;5.20;;;3.20;;
71648;SDS011;59492;45.638;11.714;2023-02-26T09:16:57;4.70;;;3.40;;
71648;SDS011;59492;45.638;11.714;2023-02-26T09:19:23;4.50;;;3.30;;
71648;SDS011;59492;45.638;11.714;2023-02-26T09:21:49;4.60;;;3.00;;
71648;SDS011;59492;45.638;11.714;2023-02-26T09:24:15;5.00;;;3.20;;
71648;SDS011;59492;45.638;11.714;2023-02-26T09:26:40;5.20;;;3.00;;
71648;SDS011;59492;45.638;11.714;2023-02-26T09:29:11;4.80;;;3.20;;
71648;SDS011;59492;45.638;11.714;2023-02-26T09:31:38;5.30;;;3.10;;
71648;SDS011;59492;45.638;11.714;2023-02-26T09:34:06;5.20;;;3.50;;
71648;SDS011;59492;45.638;11.714;2023-02-26T09:36:32;5.00;;;3.30;;
71648;SDS011;59492;45.638;11.714;2023-02-26T09:39:01;4.70;;;3.30;;
71648;SDS011;59492;45.638;11.714;2023-02-26T09:41:32;5.70;;;2.80;;
71648;SDS011;59492;45.638;11.714;2023-02-26T09:46:59;5.40;;;3.30;;
71648;SDS011;59492;45.638;11.714;2023-02-26T09:49:46;3.90;;;3.00;;
71648;SDS011;59492;45.638;11.714;2023-02-26T09:55:39;5.40;;;2.90;;
71648;SDS011;59492;45.638;11.714;2023-02-26T09:58:43;2.90;;;2.60;;
71648;SDS011;59492;45.638;11.714;2023-02-26T10:04:00;3.60;;;2.70;;
71648;SDS011;59492;45.638;11.714;2023-02-26T10:06:43;3.30;;;2.70;;
71648;SDS011;59492;45.638;11.714;2023-02-26T10:09:24;2.80;;;2.40;;
71648;SDS011;59492;45.638;11.714;2023-02-26T10:11:56;4.40;;;2.70;;
71648;SDS011;59492;45.638;11.714;2023-02-26T10:14:39;3.10;;;2.40;;
71648;SDS011;59492;45.638;11.714;2023-02-26T10:20:12;5.10;;;2.90;;
71648;SDS011;59492;45.638;11.714;2023-02-26T10:25:53;3.90;;;2.70;;
71648;SDS011;59492;45.638;11.714;2023-02-26T10:28:34;6.20;;;2.70;;
71648;SDS011;59492;45.638;11.714;2023-02-26T10:34:38;3.80;;;2.60;;
71648;SDS011;59492;45.638;11.714;2023-02-26T10:39:49;5.10;;;2.80;;
71648;SDS011;59492;45.638;11.714;2023-02-26T10:42:24;6.20;;;2.60;;
71648;SDS011;59492;45.638;11.714;2023-02-26T10:50:43;2.70;;;2.30;;
71648;SDS011;59492;45.638;11.714;2023-02-26T10:53:14;3.30;;;2.30;;
71648;SDS011;59492;45.638;11.714;2023-02-26T10:55:40;5.30;;;2.60;;
71648;SDS011;59492;45.638;11.714;2023-02-26T10:58:29;5.90;;;2.70;;
71648;SDS011;59492;45.638;11.714;2023-02-26T11:00:55;4.50;;;2.60;;
71648;SDS011;59492;45.638;11.714;2023-02-26T11:03:27;5.80;;;4.40;;
71648;SDS011;59492;45.638;11.714;2023-02-26T11:05:53;6.60;;;4.40;;
71648;SDS011;59492;45.638;11.714;2023-02-26T11:08:27;6.00;;;4.50;;
71648;SDS011;59492;45.638;11.714;2023-02-26T11:10:59;6.50;;;3.90;;
71648;SDS011;59492;45.638;11.714;2023-02-26T11:13:29;6.60;;;4.50;;
71648;SDS011;59492;45.638;11.714;2023-02-26T11:15:57;7.10;;;4.50;;
71648;SDS011;59492;45.638;11.714;2023-02-26T11:18:39;5.60;;;3.90;;
71648;SDS011;59492;45.638;11.714;2023-02-26T11:21:08;6.20;;;3.90;;
71648;SDS011;59492;45.638;11.714;2023-02-26T11:23:43;8.90;;;3.70;;
71648;SDS011;59492;45.638;11.714;2023-02-26T11:26:17;5.80;;;3.80;;
71648;SDS011;59492;45.638;11.714;2023-02-26T11:28:52;5.40;;;3.40;;
71648;SDS011;59492;45.638;11.714;2023-02-26T11:31:20;7.50;;;3.50;;
71648;SDS011;59492;45.638;11.714;2023-02-26T11:33:58;4.30;;;3.30;;
71648;SDS011;59492;45.638;11.714;2023-02-26T11:36:28;4.70;;;3.30;;
71648;SDS011;59492;45.638;11.714;2023-02-26T11:39:06;5.10;;;3.60;;
71648;SDS011;59492;45.638;11.714;2023-02-26T11:41:38;4.00;;;3.20;;
71648;SDS011;59492;45.638;11.714;2023-02-26T11:44:50;4.20;;;3.30;;
71648;SDS011;59492;45.638;11.714;2023-02-26T11:47:06;4.90;;;3.20;;
71648;SDS011;59492;45.638;11.714;2023-02-26T11:49:38;6.20;;;3.80;;
71648;SDS011;59492;45.638;11.714;2023-02-26T11:52:27;4.40;;;3.30;;
71648;SDS011;59492;45.638;11.714;2023-02-26T11:55:02;4.60;;;3.60;;
71648;SDS011;59492;45.638;11.714;2023-02-26T11:57:33;3.70;;;3.10;;
71648;SDS011;59492;45.638;11.714;2023-02-26T12:00:15;4.20;;;3.10;;
71648;SDS011;59492;45.638;11.714;2023-02-26T12:02:48;4.50;;;3.30;;
71648;SDS011;59492;45.638;11.714;2023-02-26T12:05:23;3.80;;;3.00;;
71648;SDS011;59492;45.638;11.714;2023-02-26T12:07:48;5.90;;;3.20;;
71648;SDS011;59492;45.638;11.714;2023-02-26T12:10:22;4.60;;;2.80;;
71648;SDS011;59492;45.638;11.714;2023-02-26T12:13:06;5.70;;;3.10;;
71648;SDS011;59492;45.638;11.714;2023-02-26T12:15:49;3.70;;;3.20;;
71648;SDS011;59492;45.638;11.714;2023-02-26T12:18:31;4.60;;;3.00;;
71648;SDS011;59492;45.638;11.714;2023-02-26T12:27:02;6.10;;;3.30;;
71648;SDS011;59492;45.638;11.714;2023-02-26T12:35:49;3.00;;;2.70;;
71648;SDS011;59492;45.638;11.714;2023-02-26T12:44:46;4.70;;;2.80;;
71648;SDS011;59492;45.638;11.714;2023-02-26T12:47:53;5.90;;;2.60;;
71648;SDS011;59492;45.638;11.714;2023-02-26T12:53:53;3.20;;;2.40;;
71648;SDS011;59492;45.638;11.714;2023-02-26T12:56:39;3.60;;;2.70;;
71648;SDS011;59492;45.638;11.714;2023-02-26T13:03:03;2.90;;;2.40;;
71648;SDS011;59492;45.638;11.714;2023-02-26T13:12:20;3.60;;;2.50;;
71648;SDS011;59492;45.638;11.714;2023-02-26T13:21:42;4.20;;;2.50;;
71648;SDS011;59492;45.638;11.714;2023-02-26T13:24:17;3.80;;;2.80;;
71648;SDS011;59492;45.638;11.714;2023-02-26T13:26:52;2.80;;;2.40;;
71648;SDS011;59492;45.638;11.714;2023-02-26T13:29:27;3.00;;;2.40;;
71648;SDS011;59492;45.638;11.714;2023-02-26T13:32:33;4.30;;;2.10;;
71648;SDS011;59492;45.638;11.714;2023-02-26T13:35:00;3.00;;;2.50;;
71648;SDS011;59492;45.638;11.714;2023-02-26T13:54:44;2.50;;;2.30;;
71648;SDS011;59492;45.638;11.714;2023-02-26T14:02:55;2.30;;;2.10;;
71648;SDS011;59492;45.638;11.714;2023-02-26T14:11:27;3.30;;;2.20;;
71648;SDS011;59492;45.638;11.714;2023-02-26T14:27:32;3.40;;;2.10;;
71648;SDS011;59492;45.638;11.714;2023-02-26T14:30:20;2.40;;;2.00;;
71648;SDS011;59492;45.638;11.714;2023-02-26T14:35:39;3.20;;;1.90;;
71648;SDS011;59492;45.638;11.714;2023-02-26T14:38:33;3.00;;;2.30;;
71648;SDS011;59492;45.638;11.714;2023-02-26T14:41:06;3.40;;;2.70;;
71648;SDS011;59492;45.638;11.714;2023-02-26T14:43:54;4.10;;;2.30;;
71648;SDS011;59492;45.638;11.714;2023-02-26T14:46:24;5.50;;;2.60;;
71648;SDS011;59492;45.638;11.714;2023-02-26T14:48:53;5.80;;;2.50;;
71648;SDS011;59492;45.638;11.714;2023-02-26T15:00:12;9.00;;;2.00;;
71648;SDS011;59492;45.638;11.714;2023-02-26T15:03:17;4.50;;;2.90;;
71648;SDS011;59492;45.638;11.714;2023-02-26T15:08:17;6.50;;;5.20;;
71648;SDS011;59492;45.638;11.714;2023-02-26T15:14:02;5.70;;;3.80;;
71648;SDS011;59492;45.638;11.714;2023-02-26T15:16:37;6.50;;;4.40;;
71648;SDS011;59492;45.638;11.714;2023-02-26T15:22:09;8.30;;;4.70;;
71648;SDS011;59492;45.638;11.714;2023-02-26T15:24:57;5.80;;;3.80;;
71648;SDS011;59492;45.638;11.714;2023-02-26T15:27:32;5.80;;;4.30;;
71648;SDS011;59492;45.638;11.714;2023-02-26T15:30:04;7.90;;;4.20;;
71648;SDS011;59492;45.638;11.714;2023-02-26T15:32:34;6.40;;;3.70;;
71648;SDS011;59492;45.638;11.714;2023-02-26T15:35:05;7.40;;;3.80;;
71648;SDS011;59492;45.638;11.714;2023-02-26T15:37:39;6.40;;;3.90;;
71648;SDS011;59492;45.638;11.714;2023-02-26T15:40:06;13.70;;;4.10;;
71648;SDS011;59492;45.638;11.714;2023-02-26T15:42:38;11.70;;;4.40;;
71648;SDS011;59492;45.638;11.714;2023-02-26T15:45:55;7.10;;;4.00;;
71648;SDS011;59492;45.638;11.714;2023-02-26T15:48:46;6.70;;;4.00;;
71648;SDS011;59492;45.638;11.714;2023-02-26T15:51:04;3.80;;;2.90;;
71648;SDS011;59492;45.638;11.714;2023-02-26T15:53:36;4.70;;;3.30;;
71648;SDS011;59492;45.638;11.714;2023-02-26T15:56:07;6.60;;;3.60;;
71648;SDS011;59492;45.638;11.714;2023-02-26T15:58:50;5.70;;;3.50;;
71648;SDS011;59492;45.638;11.714;2023-02-26T16:01:21;7.20;;;3.70;;
71648;SDS011;59492;45.638;11.714;2023-02-26T16:03:57;5.00;;;3.70;;
71648;SDS011;59492;45.638;11.714;2023-02-26T16:06:31;5.50;;;3.90;;
71648;SDS011;59492;45.638;11.714;2023-02-26T16:09:06;5.70;;;3.60;;
71648;SDS011;59492;45.638;11.714;2023-02-26T16:11:39;5.00;;;3.70;;
71648;SDS011;59492;45.638;11.714;2023-02-26T16:14:06;5.70;;;3.70;;
71648;SDS011;59492;45.638;11.714;2023-02-26T16:16:46;8.10;;;3.60;;
71648;SDS011;59492;45.638;11.714;2023-02-26T16:19:34;4.70;;;3.50;;
71648;SDS011;59492;45.638;11.714;2023-02-26T16:22:15;4.50;;;2.90;;
71648;SDS011;59492;45.638;11.714;2023-02-26T16:25:22;4.20;;;3.10;;
71648;SDS011;59492;45.638;11.714;2023-02-26T16:28:16;10.40;;;3.40;;
71648;SDS011;59492;45.638;11.714;2023-02-26T16:30:59;5.10;;;3.70;;
71648;SDS011;59492;45.638;11.714;2023-02-26T16:36:30;5.60;;;3.70;;
71648;SDS011;59492;45.638;11.714;2023-02-26T16:39:12;10.50;;;3.40;;
71648;SDS011;59492;45.638;11.714;2023-02-26T16:47:39;5.70;;;3.50;;
71648;SDS011;59492;45.638;11.714;2023-02-26T16:50:27;5.90;;;3.20;;
71648;SDS011;59492;45.638;11.714;2023-02-26T16:56:42;3.50;;;2.80;;
71648;SDS011;59492;45.638;11.714;2023-02-26T16:59:36;3.60;;;2.80;;
71648;SDS011;59492;45.638;11.714;2023-02-26T17:02:07;3.50;;;2.70;;
71648;SDS011;59492;45.638;11.714;2023-02-26T17:04:44;6.80;;;3.30;;
71648;SDS011;59492;45.638;11.714;2023-02-26T17:07:35;4.70;;;2.90;;
71648;SDS011;59492;45.638;11.714;2023-02-26T17:13:46;8.90;;;6.50;;
71648;SDS011;59492;45.638;11.714;2023-02-26T17:16:16;10.30;;;5.60;;
71648;SDS011;59492;45.638;11.714;2023-02-26T17:18:54;10.60;;;7.10;;
71648;SDS011;59492;45.638;11.714;2023-02-26T17:21:30;11.00;;;7.40;;
71648;SDS011;59492;45.638;11.714;2023-02-26T17:24:04;10.60;;;7.40;;
71648;SDS011;59492;45.638;11.714;2023-02-26T17:26:39;8.90;;;7.00;;
71648;SDS011;59492;45.638;11.714;2023-02-26T17:29:16;9.40;;;6.90;;
71648;SDS011;59492;45.638;11.714;2023-02-26T17:31:52;10.50;;;6.40;;
71648;SDS011;59492;45.638;11.714;2023-02-26T17:34:29;10.80;;;7.40;;
71648;SDS011;59492;45.638;11.714;2023-02-26T17:37:01;9.00;;;7.20;;
71648;SDS011;59492;45.638;11.714;2023-02-26T17:39:37;9.10;;;6.20;;
71648;SDS011;59492;45.638;11.714;2023-02-26T17:42:13;7.80;;;6.40;;
71648;SDS011;59492;45.638;11.714;2023-02-26T17:44:49;8.40;;;6.30;;
71648;SDS011;59492;45.638;11.714;2023-02-26T17:47:33;8.40;;;6.30;;
71648;SDS011;59492;45.638;11.714;2023-02-26T17:50:39;8.00;;;5.90;;
71648;SDS011;59492;45.638;11.714;2023-02-26T17:53:07;10.40;;;6.30;;
71648;SDS011;59492;45.638;11.714;2023-02-26T17:55:41;8.60;;;6.40;;
71648;SDS011;59492;45.638;11.714;2023-02-26T17:58:19;8.40;;;6.40;;
71648;SDS011;59492;45.638;11.714;2023-02-26T18:01:04;8.90;;;5.90;;
71648;SDS011;59492;45.638;11.714;2023-02-26T18:03:43;8.10;;;6.00;;
71648;SDS011;59492;45.638;11.714;2023-02-26T18:06:10;8.50;;;5.80;;
71648;SDS011;59492;45.638;11.714;2023-02-26T18:08:38;8.80;;;6.00;;
71648;SDS011;59492;45.638;11.714;2023-02-26T18:11:07;8.00;;;5.90;;
71648;SDS011;59492;45.638;11.714;2023-02-26T18:13:43;7.80;;;5.90;;
71648;SDS011;59492;45.638;11.714;2023-02-26T18:16:11;6.80;;;5.60;;
71648;SDS011;59492;45.638;11.714;2023-02-26T18:21:29;7.90;;;5.00;;
71648;SDS011;59492;45.638;11.714;2023-02-26T18:23:59;9.40;;;5.90;;
71648;SDS011;59492;45.638;11.714;2023-02-26T18:26:31;7.00;;;5.60;;